sensor_id;sensor_type;location;lat;lon;timestamp;P1;durP1;ratioP1;P2;durP2;ratioP2
14235;SDS011;7202;50.718;7.072;2024-03-25T00:01:12;13.93;;;3.67;;
14235;SDS011;7202;50.718;7.072;2024-03-25T00:03:58;17.55;;;3.90;;
14235;SDS011;7202;50.718;7.072;2024-03-25T00:06:45;11.50;;;3.58;;
14235;SDS011;7202;50.718;7.072;2024-03-25T00:09:30;13.27;;;3.50;;
14235;SDS011;7202;50.718;7.072;2024-03-25T00:12:16;10.35;;;3.38;;
14235;SDS011;7202;50.718;7.072;2024-03-25T00:15:01;13.18;;;3.35;;
14235;SDS011;7202;50.718;7.072;2024-03-25T00:17:48;7.25;;;3.47;;
14235;SDS011;7202;50.718;7.072;2024-03-25T00:20:33;8.45;;;3.05;;
14235;SDS011;7202;50.718;7.072;2024-03-25T00:23:21;12.05;;;3.60;;
14235;SDS011;7202;50.718;7.072;2024-03-25T00:26:06;14.70;;;4.28;;
14235;SDS011;7202;50.718;7.072;2024-03-25T00:28:52;12.32;;;3.97;;
14235;SDS011;7202;50.718;7.072;2024-03-25T00:31:37;6.90;;;3.03;;
14235;SDS011;7202;50.718;7.072;2024-03-25T00:34:24;8.30;;;3.13;;
14235;SDS011;7202;50.718;7.072;2024-03-25T00:37:10;15.02;;;3.80;;
14235;SDS011;7202;50.718;7.072;2024-03-25T00:39:57;12.35;;;3.40;;
14235;SDS011;7202;50.718;7.072;2024-03-25T00:42:42;14.13;;;4.05;;
14235;SDS011;7202;50.718;7.072;2024-03-25T00:45:28;8.95;;;3.72;;
14235;SDS011;7202;50.718;7.072;2024-03-25T00:48:15;8.70;;;3.38;;
14235;SDS011;7202;50.718;7.072;2024-03-25T00:51:01;11.38;;;3.20;;
14235;SDS011;7202;50.718;7.072;2024-03-25T00:53:47;11.07;;;3.35;;
14235;SDS011;7202;50.718;7.072;2024-03-25T00:56:34;9.73;;;3.30;;
14235;SDS011;7202;50.718;7.072;2024-03-25T00:59:21;15.00;;;3.88;;
14235;SDS011;7202;50.718;7.072;2024-03-25T01:02:06;6.47;;;3.42;;
14235;SDS011;7202;50.718;7.072;2024-03-25T01:04:52;11.02;;;4.55;;
14235;SDS011;7202;50.718;7.072;2024-03-25T01:07:38;14.77;;;4.45;;
14235;SDS011;7202;50.718;7.072;2024-03-25T01:10:25;11.73;;;4.50;;
14235;SDS011;7202;50.718;7.072;2024-03-25T01:13:11;8.63;;;3.67;;
14235;SDS011;7202;50.718;7.072;2024-03-25T01:15:57;16.52;;;4.63;;
14235;SDS011;7202;50.718;7.072;2024-03-25T01:18:43;9.80;;;3.85;;
14235;SDS011;7202;50.718;7.072;2024-03-25T01:21:29;11.48;;;3.67;;
14235;SDS011;7202;50.718;7.072;2024-03-25T01:24:15;9.50;;;3.97;;
14235;SDS011;7202;50.718;7.072;2024-03-25T01:27:01;13.02;;;3.92;;
14235;SDS011;7202;50.718;7.072;2024-03-25T01:29:47;11.93;;;3.70;;
14235;SDS011;7202;50.718;7.072;2024-03-25T01:32:33;11.38;;;3.53;;
14235;SDS011;7202;50.718;7.072;2024-03-25T01:35:18;18.48;;;4.05;;
14235;SDS011;7202;50.718;7.072;2024-03-25T01:38:05;13.18;;;3.97;;
14235;SDS011;7202;50.718;7.072;2024-03-25T01:40:50;10.73;;;3.50;;
14235;SDS011;7202;50.718;7.072;2024-03-25T01:43:36;13.55;;;4.18;;
14235;SDS011;7202;50.718;7.072;2024-03-25T01:46:23;10.90;;;3.33;;
14235;SDS011;7202;50.718;7.072;2024-03-25T01:49:09;14.40;;;3.47;;
14235;SDS011;7202;50.718;7.072;2024-03-25T01:51:56;11.45;;;3.47;;
14235;SDS011;7202;50.718;7.072;2024-03-25T01:54:43;10.43;;;3.75;;
14235;SDS011;7202;50.718;7.072;2024-03-25T01:57:29;12.55;;;2.85;;
14235;SDS011;7202;50.718;7.072;2024-03-25T02:00:15;9.90;;;3.05;;
14235;SDS011;7202;50.718;7.072;2024-03-25T02:03:07;13.35;;;3.88;;
14235;SDS011;7202;50.718;7.072;2024-03-25T02:05:55;17.92;;;3.85;;
14235;SDS011;7202;50.718;7.072;2024-03-25T02:08:42;17.60;;;3.38;;
14235;SDS011;7202;50.718;7.072;2024-03-25T02:11:28;16.67;;;4.07;;
14235;SDS011;7202;50.718;7.072;2024-03-25T02:14:15;12.95;;;3.47;;
14235;SDS011;7202;50.718;7.072;2024-03-25T02:17:01;12.82;;;4.28;;
14235;SDS011;7202;50.718;7.072;2024-03-25T02:19:49;14.55;;;3.80;;
14235;SDS011;7202;50.718;7.072;2024-03-25T02:22:36;10.75;;;3.78;;
14235;SDS011;7202;50.718;7.072;2024-03-25T02:25:21;11.68;;;3.70;;
14235;SDS011;7202;50.718;7.072;2024-03-25T02:28:09;14.95;;;3.40;;
14235;SDS011;7202;50.718;7.072;2024-03-25T02:30:55;14.30;;;3.22;;
14235;SDS011;7202;50.718;7.072;2024-03-25T02:33:41;12.43;;;3.38;;
14235;SDS011;7202;50.718;7.072;2024-03-25T02:36:27;17.35;;;4.40;;
14235;SDS011;7202;50.718;7.072;2024-03-25T02:39:13;12.20;;;3.90;;
14235;SDS011;7202;50.718;7.072;2024-03-25T02:41:59;10.48;;;3.90;;
14235;SDS011;7202;50.718;7.072;2024-03-25T02:44:47;10.32;;;3.10;;
14235;SDS011;7202;50.718;7.072;2024-03-25T02:47:32;12.20;;;3.47;;
14235;SDS011;7202;50.718;7.072;2024-03-25T02:50:27;11.00;;;3.90;;
14235;SDS011;7202;50.718;7.072;2024-03-25T02:53:12;8.30;;;3.40;;
14235;SDS011;7202;50.718;7.072;2024-03-25T02:55:58;8.77;;;3.15;;
14235;SDS011;7202;50.718;7.072;2024-03-25T02:58:43;14.55;;;4.60;;
14235;SDS011;7202;50.718;7.072;2024-03-25T03:01:31;12.23;;;2.92;;
14235;SDS011;7202;50.718;7.072;2024-03-25T03:04:16;14.85;;;3.33;;
14235;SDS011;7202;50.718;7.072;2024-03-25T03:07:02;10.90;;;3.00;;
14235;SDS011;7202;50.718;7.072;2024-03-25T03:09:48;16.27;;;3.25;;
14235;SDS011;7202;50.718;7.072;2024-03-25T03:12:34;14.10;;;2.78;;
14235;SDS011;7202;50.718;7.072;2024-03-25T03:15:20;16.83;;;3.97;;
14235;SDS011;7202;50.718;7.072;2024-03-25T03:18:07;13.90;;;3.35;;
14235;SDS011;7202;50.718;7.072;2024-03-25T03:20:53;5.72;;;2.60;;
14235;SDS011;7202;50.718;7.072;2024-03-25T03:23:40;11.52;;;3.00;;
14235;SDS011;7202;50.718;7.072;2024-03-25T03:26:26;9.82;;;3.22;;
14235;SDS011;7202;50.718;7.072;2024-03-25T03:29:11;13.73;;;3.28;;
14235;SDS011;7202;50.718;7.072;2024-03-25T03:31:57;14.13;;;3.20;;
14235;SDS011;7202;50.718;7.072;2024-03-25T03:34:44;12.20;;;3.22;;
14235;SDS011;7202;50.718;7.072;2024-03-25T03:37:30;17.35;;;3.63;;
14235;SDS011;7202;50.718;7.072;2024-03-25T03:40:15;13.38;;;3.40;;
14235;SDS011;7202;50.718;7.072;2024-03-25T03:43:01;9.15;;;2.97;;
14235;SDS011;7202;50.718;7.072;2024-03-25T03:45:46;10.07;;;3.45;;
14235;SDS011;7202;50.718;7.072;2024-03-25T03:48:32;10.70;;;3.83;;
14235;SDS011;7202;50.718;7.072;2024-03-25T03:51:19;11.57;;;3.03;;
14235;SDS011;7202;50.718;7.072;2024-03-25T03:54:05;19.73;;;3.33;;
14235;SDS011;7202;50.718;7.072;2024-03-25T03:56:50;12.75;;;3.30;;
14235;SDS011;7202;50.718;7.072;2024-03-25T03:59:36;12.25;;;3.42;;
14235;SDS011;7202;50.718;7.072;2024-03-25T04:02:21;8.30;;;2.60;;
14235;SDS011;7202;50.718;7.072;2024-03-25T04:05:08;15.98;;;3.55;;
14235;SDS011;7202;50.718;7.072;2024-03-25T04:07:54;11.45;;;3.05;;
14235;SDS011;7202;50.718;7.072;2024-03-25T04:10:41;11.70;;;3.20;;
14235;SDS011;7202;50.718;7.072;2024-03-25T04:13:28;9.65;;;3.35;;
14235;SDS011;7202;50.718;7.072;2024-03-25T04:16:13;12.98;;;3.20;;
14235;SDS011;7202;50.718;7.072;2024-03-25T04:18:59;13.50;;;3.20;;
14235;SDS011;7202;50.718;7.072;2024-03-25T04:21:45;18.80;;;4.38;;
14235;SDS011;7202;50.718;7.072;2024-03-25T04:24:32;16.02;;;3.42;;
14235;SDS011;7202;50.718;7.072;2024-03-25T04:27:19;13.82;;;3.53;;
14235;SDS011;7202;50.718;7.072;2024-03-25T04:30:07;10.52;;;3.30;;
14235;SDS011;7202;50.718;7.072;2024-03-25T04:32:54;12.15;;;3.58;;
14235;SDS011;7202;50.718;7.072;2024-03-25T04:35:39;18.85;;;3.92;;
14235;SDS011;7202;50.718;7.072;2024-03-25T04:38:27;7.32;;;3.00;;
14235;SDS011;7202;50.718;7.072;2024-03-25T04:41:13;12.05;;;2.97;;
14235;SDS011;7202;50.718;7.072;2024-03-25T04:43:59;8.95;;;3.65;;
14235;SDS011;7202;50.718;7.072;2024-03-25T04:46:44;12.20;;;3.42;;
14235;SDS011;7202;50.718;7.072;2024-03-25T04:49:29;11.25;;;3.28;;
14235;SDS011;7202;50.718;7.072;2024-03-25T04:52:15;8.57;;;3.60;;
14235;SDS011;7202;50.718;7.072;2024-03-25T04:55:01;11.02;;;3.08;;
14235;SDS011;7202;50.718;7.072;2024-03-25T04:57:47;12.40;;;3.50;;
14235;SDS011;7202;50.718;7.072;2024-03-25T05:00:32;11.00;;;3.50;;
14235;SDS011;7202;50.718;7.072;2024-03-25T05:03:18;6.85;;;3.15;;
14235;SDS011;7202;50.718;7.072;2024-03-25T05:06:03;9.57;;;3.03;;
14235;SDS011;7202;50.718;7.072;2024-03-25T05:08:49;9.80;;;3.22;;
14235;SDS011;7202;50.718;7.072;2024-03-25T05:11:35;8.55;;;3.08;;
14235;SDS011;7202;50.718;7.072;2024-03-25T05:14:21;11.40;;;3.45;;
14235;SDS011;7202;50.718;7.072;2024-03-25T05:17:07;13.57;;;3.03;;
14235;SDS011;7202;50.718;7.072;2024-03-25T05:19:52;9.32;;;4.20;;
14235;SDS011;7202;50.718;7.072;2024-03-25T05:22:37;10.45;;;3.80;;
14235;SDS011;7202;50.718;7.072;2024-03-25T05:25:23;7.20;;;3.05;;
14235;SDS011;7202;50.718;7.072;2024-03-25T05:28:08;7.90;;;3.10;;
14235;SDS011;7202;50.718;7.072;2024-03-25T05:30:56;6.65;;;3.20;;
14235;SDS011;7202;50.718;7.072;2024-03-25T05:33:49;10.52;;;3.05;;
14235;SDS011;7202;50.718;7.072;2024-03-25T05:36:35;8.43;;;2.95;;
14235;SDS011;7202;50.718;7.072;2024-03-25T05:39:20;8.77;;;3.25;;
14235;SDS011;7202;50.718;7.072;2024-03-25T05:42:07;10.65;;;3.53;;
14235;SDS011;7202;50.718;7.072;2024-03-25T05:44:52;8.63;;;3.25;;
14235;SDS011;7202;50.718;7.072;2024-03-25T05:47:38;14.05;;;3.75;;
14235;SDS011;7202;50.718;7.072;2024-03-25T05:50:24;10.57;;;3.08;;
14235;SDS011;7202;50.718;7.072;2024-03-25T05:53:09;8.45;;;3.28;;
14235;SDS011;7202;50.718;7.072;2024-03-25T05:55:54;8.45;;;3.03;;
14235;SDS011;7202;50.718;7.072;2024-03-25T05:58:40;10.20;;;3.15;;
14235;SDS011;7202;50.718;7.072;2024-03-25T06:01:25;9.70;;;3.40;;
14235;SDS011;7202;50.718;7.072;2024-03-25T06:04:12;13.30;;;3.70;;
14235;SDS011;7202;50.718;7.072;2024-03-25T06:06:58;10.38;;;3.03;;
14235;SDS011;7202;50.718;7.072;2024-03-25T06:09:43;8.65;;;3.05;;
14235;SDS011;7202;50.718;7.072;2024-03-25T06:12:28;8.05;;;2.75;;
14235;SDS011;7202;50.718;7.072;2024-03-25T06:15:14;14.35;;;3.83;;
14235;SDS011;7202;50.718;7.072;2024-03-25T06:17:59;7.00;;;2.83;;
14235;SDS011;7202;50.718;7.072;2024-03-25T06:20:45;7.80;;;2.42;;
14235;SDS011;7202;50.718;7.072;2024-03-25T06:23:31;8.43;;;3.20;;
14235;SDS011;7202;50.718;7.072;2024-03-25T06:26:16;14.10;;;3.25;;
14235;SDS011;7202;50.718;7.072;2024-03-25T06:29:02;12.82;;;3.45;;
14235;SDS011;7202;50.718;7.072;2024-03-25T06:31:47;15.88;;;3.45;;
14235;SDS011;7202;50.718;7.072;2024-03-25T06:34:50;10.25;;;2.95;;
14235;SDS011;7202;50.718;7.072;2024-03-25T06:37:37;9.07;;;3.03;;
14235;SDS011;7202;50.718;7.072;2024-03-25T06:40:22;10.63;;;3.88;;
14235;SDS011;7202;50.718;7.072;2024-03-25T06:43:07;7.22;;;2.50;;
14235;SDS011;7202;50.718;7.072;2024-03-25T06:45:53;5.47;;;2.85;;
14235;SDS011;7202;50.718;7.072;2024-03-25T06:48:38;9.93;;;3.28;;
14235;SDS011;7202;50.718;7.072;2024-03-25T06:51:23;11.02;;;3.28;;
14235;SDS011;7202;50.718;7.072;2024-03-25T06:54:10;9.02;;;2.65;;
14235;SDS011;7202;50.718;7.072;2024-03-25T06:56:55;5.55;;;2.80;;
14235;SDS011;7202;50.718;7.072;2024-03-25T06:59:40;9.20;;;3.17;;
14235;SDS011;7202;50.718;7.072;2024-03-25T07:02:26;10.07;;;3.03;;
14235;SDS011;7202;50.718;7.072;2024-03-25T07:05:11;9.27;;;2.75;;
14235;SDS011;7202;50.718;7.072;2024-03-25T07:07:56;9.63;;;2.90;;
14235;SDS011;7202;50.718;7.072;2024-03-25T07:10:43;7.93;;;3.05;;
14235;SDS011;7202;50.718;7.072;2024-03-25T07:13:28;10.40;;;2.58;;
14235;SDS011;7202;50.718;7.072;2024-03-25T07:16:14;7.18;;;3.00;;
14235;SDS011;7202;50.718;7.072;2024-03-25T07:18:59;7.03;;;2.58;;
14235;SDS011;7202;50.718;7.072;2024-03-25T07:21:44;9.50;;;2.45;;
14235;SDS011;7202;50.718;7.072;2024-03-25T07:24:29;8.07;;;2.45;;
14235;SDS011;7202;50.718;7.072;2024-03-25T07:27:17;7.05;;;2.95;;
14235;SDS011;7202;50.718;7.072;2024-03-25T07:30:02;9.00;;;2.60;;
14235;SDS011;7202;50.718;7.072;2024-03-25T07:32:48;8.40;;;2.90;;
14235;SDS011;7202;50.718;7.072;2024-03-25T07:35:33;6.28;;;2.90;;
14235;SDS011;7202;50.718;7.072;2024-03-25T07:38:19;7.32;;;2.42;;
14235;SDS011;7202;50.718;7.072;2024-03-25T07:41:04;8.73;;;2.97;;
14235;SDS011;7202;50.718;7.072;2024-03-25T07:43:51;11.05;;;2.90;;
14235;SDS011;7202;50.718;7.072;2024-03-25T07:46:36;8.93;;;2.78;;
14235;SDS011;7202;50.718;7.072;2024-03-25T07:49:22;9.00;;;2.95;;
14235;SDS011;7202;50.718;7.072;2024-03-25T07:52:07;6.88;;;2.47;;
14235;SDS011;7202;50.718;7.072;2024-03-25T07:54:52;9.73;;;2.53;;
14235;SDS011;7202;50.718;7.072;2024-03-25T07:57:38;8.00;;;2.40;;
14235;SDS011;7202;50.718;7.072;2024-03-25T08:00:25;8.38;;;2.80;;
14235;SDS011;7202;50.718;7.072;2024-03-25T08:03:10;10.02;;;2.65;;
14235;SDS011;7202;50.718;7.072;2024-03-25T08:05:56;9.23;;;2.47;;
14235;SDS011;7202;50.718;7.072;2024-03-25T08:08:41;7.45;;;2.28;;
14235;SDS011;7202;50.718;7.072;2024-03-25T08:11:26;8.23;;;3.22;;
14235;SDS011;7202;50.718;7.072;2024-03-25T08:14:11;13.25;;;3.33;;
14235;SDS011;7202;50.718;7.072;2024-03-25T08:16:58;10.88;;;2.58;;
14235;SDS011;7202;50.718;7.072;2024-03-25T08:19:43;10.00;;;2.58;;
14235;SDS011;7202;50.718;7.072;2024-03-25T08:22:28;11.10;;;2.97;;
14235;SDS011;7202;50.718;7.072;2024-03-25T08:25:13;11.20;;;3.08;;
14235;SDS011;7202;50.718;7.072;2024-03-25T08:27:59;9.88;;;2.50;;
14235;SDS011;7202;50.718;7.072;2024-03-25T08:30:44;11.40;;;3.13;;
14235;SDS011;7202;50.718;7.072;2024-03-25T08:33:31;10.05;;;3.05;;
14235;SDS011;7202;50.718;7.072;2024-03-25T08:36:17;8.75;;;2.30;;
14235;SDS011;7202;50.718;7.072;2024-03-25T08:39:02;9.30;;;2.45;;
14235;SDS011;7202;50.718;7.072;2024-03-25T08:41:47;8.13;;;2.40;;
14235;SDS011;7202;50.718;7.072;2024-03-25T08:44:33;12.60;;;3.00;;
14235;SDS011;7202;50.718;7.072;2024-03-25T08:47:18;9.85;;;2.88;;
14235;SDS011;7202;50.718;7.072;2024-03-25T08:50:05;11.88;;;2.65;;
14235;SDS011;7202;50.718;7.072;2024-03-25T08:52:51;6.55;;;2.60;;
14235;SDS011;7202;50.718;7.072;2024-03-25T08:55:36;7.05;;;2.50;;
14235;SDS011;7202;50.718;7.072;2024-03-25T08:58:22;6.65;;;2.60;;
14235;SDS011;7202;50.718;7.072;2024-03-25T09:01:07;8.43;;;2.78;;
14235;SDS011;7202;50.718;7.072;2024-03-25T09:03:52;8.90;;;2.78;;
14235;SDS011;7202;50.718;7.072;2024-03-25T09:06:38;5.93;;;2.30;;
14235;SDS011;7202;50.718;7.072;2024-03-25T09:09:24;8.18;;;2.63;;
14235;SDS011;7202;50.718;7.072;2024-03-25T09:12:27;6.57;;;2.33;;
14235;SDS011;7202;50.718;7.072;2024-03-25T09:15:12;7.55;;;2.08;;
14235;SDS011;7202;50.718;7.072;2024-03-25T09:17:57;7.75;;;2.35;;
14235;SDS011;7202;50.718;7.072;2024-03-25T09:20:43;8.02;;;2.75;;
14235;SDS011;7202;50.718;7.072;2024-03-25T09:23:30;8.77;;;2.45;;
14235;SDS011;7202;50.718;7.072;2024-03-25T09:26:15;5.47;;;1.80;;
14235;SDS011;7202;50.718;7.072;2024-03-25T09:29:00;8.77;;;2.55;;
14235;SDS011;7202;50.718;7.072;2024-03-25T09:31:46;11.07;;;2.55;;
14235;SDS011;7202;50.718;7.072;2024-03-25T09:34:31;9.50;;;2.78;;
14235;SDS011;7202;50.718;7.072;2024-03-25T09:37:17;7.65;;;2.40;;
14235;SDS011;7202;50.718;7.072;2024-03-25T09:40:04;11.60;;;2.47;;
14235;SDS011;7202;50.718;7.072;2024-03-25T09:42:52;9.80;;;2.17;;
14235;SDS011;7202;50.718;7.072;2024-03-25T09:45:41;7.22;;;2.13;;
14235;SDS011;7202;50.718;7.072;2024-03-25T09:48:29;8.68;;;2.50;;
14235;SDS011;7202;50.718;7.072;2024-03-25T09:51:15;10.63;;;3.20;;
14235;SDS011;7202;50.718;7.072;2024-03-25T09:54:01;7.90;;;2.45;;
14235;SDS011;7202;50.718;7.072;2024-03-25T09:56:47;11.50;;;2.30;;
14235;SDS011;7202;50.718;7.072;2024-03-25T09:59:35;6.30;;;2.60;;
14235;SDS011;7202;50.718;7.072;2024-03-25T10:02:20;7.53;;;2.28;;
14235;SDS011;7202;50.718;7.072;2024-03-25T10:05:06;8.15;;;2.22;;
14235;SDS011;7202;50.718;7.072;2024-03-25T10:07:52;5.05;;;2.25;;
14235;SDS011;7202;50.718;7.072;2024-03-25T10:10:37;8.73;;;2.10;;
14235;SDS011;7202;50.718;7.072;2024-03-25T10:13:26;5.95;;;1.98;;
14235;SDS011;7202;50.718;7.072;2024-03-25T10:16:12;6.88;;;2.17;;
14235;SDS011;7202;50.718;7.072;2024-03-25T10:18:57;7.18;;;1.88;;
14235;SDS011;7202;50.718;7.072;2024-03-25T10:21:43;4.78;;;1.70;;
14235;SDS011;7202;50.718;7.072;2024-03-25T10:24:36;5.15;;;1.73;;
14235;SDS011;7202;50.718;7.072;2024-03-25T10:27:22;9.70;;;2.20;;
14235;SDS011;7202;50.718;7.072;2024-03-25T10:30:10;7.10;;;1.67;;
14235;SDS011;7202;50.718;7.072;2024-03-25T10:33:01;6.57;;;1.92;;
14235;SDS011;7202;50.718;7.072;2024-03-25T10:35:47;6.90;;;1.58;;
14235;SDS011;7202;50.718;7.072;2024-03-25T10:38:36;5.60;;;1.77;;
14235;SDS011;7202;50.718;7.072;2024-03-25T10:41:22;6.05;;;1.80;;
14235;SDS011;7202;50.718;7.072;2024-03-25T10:44:08;5.95;;;1.67;;
14235;SDS011;7202;50.718;7.072;2024-03-25T10:46:57;8.43;;;2.10;;
14235;SDS011;7202;50.718;7.072;2024-03-25T10:49:48;4.32;;;1.60;;
14235;SDS011;7202;50.718;7.072;2024-03-25T10:52:34;7.93;;;2.60;;
14235;SDS011;7202;50.718;7.072;2024-03-25T10:55:22;3.53;;;1.98;;
14235;SDS011;7202;50.718;7.072;2024-03-25T10:58:08;7.82;;;2.78;;
14235;SDS011;7202;50.718;7.072;2024-03-25T11:00:53;6.70;;;2.38;;
14235;SDS011;7202;50.718;7.072;2024-03-25T11:03:41;5.68;;;2.67;;
14235;SDS011;7202;50.718;7.072;2024-03-25T11:06:27;10.65;;;2.60;;
14235;SDS011;7202;50.718;7.072;2024-03-25T11:09:21;4.47;;;2.08;;
14235;SDS011;7202;50.718;7.072;2024-03-25T11:12:09;7.70;;;2.05;;
14235;SDS011;7202;50.718;7.072;2024-03-25T11:14:56;5.65;;;2.30;;
14235;SDS011;7202;50.718;7.072;2024-03-25T11:17:48;6.30;;;1.95;;
14235;SDS011;7202;50.718;7.072;2024-03-25T11:20:35;5.53;;;2.25;;
14235;SDS011;7202;50.718;7.072;2024-03-25T11:23:20;7.45;;;2.10;;
14235;SDS011;7202;50.718;7.072;2024-03-25T11:26:15;11.82;;;2.40;;
14235;SDS011;7202;50.718;7.072;2024-03-25T11:29:03;6.55;;;2.45;;
14235;SDS011;7202;50.718;7.072;2024-03-25T11:31:49;8.05;;;1.58;;
14235;SDS011;7202;50.718;7.072;2024-03-25T11:34:37;5.72;;;2.00;;
14235;SDS011;7202;50.718;7.072;2024-03-25T11:37:23;5.15;;;2.28;;
14235;SDS011;7202;50.718;7.072;2024-03-25T11:40:10;6.22;;;2.47;;
14235;SDS011;7202;50.718;7.072;2024-03-25T11:42:56;4.95;;;2.05;;
14235;SDS011;7202;50.718;7.072;2024-03-25T11:45:43;5.40;;;1.58;;
14235;SDS011;7202;50.718;7.072;2024-03-25T11:48:31;3.92;;;1.77;;
14235;SDS011;7202;50.718;7.072;2024-03-25T11:51:17;3.63;;;1.27;;
14235;SDS011;7202;50.718;7.072;2024-03-25T11:54:04;6.95;;;1.88;;
14235;SDS011;7202;50.718;7.072;2024-03-25T11:56:50;4.80;;;1.80;;
14235;SDS011;7202;50.718;7.072;2024-03-25T11:59:38;5.07;;;1.95;;
14235;SDS011;7202;50.718;7.072;2024-03-25T12:02:23;4.82;;;1.98;;
14235;SDS011;7202;50.718;7.072;2024-03-25T12:05:10;5.00;;;1.75;;
14235;SDS011;7202;50.718;7.072;2024-03-25T12:07:56;4.03;;;1.77;;
14235;SDS011;7202;50.718;7.072;2024-03-25T12:10:42;3.28;;;1.60;;
14235;SDS011;7202;50.718;7.072;2024-03-25T12:13:45;3.33;;;1.60;;
14235;SDS011;7202;50.718;7.072;2024-03-25T12:16:31;2.88;;;1.48;;
14235;SDS011;7202;50.718;7.072;2024-03-25T12:19:17;4.75;;;1.50;;
14235;SDS011;7202;50.718;7.072;2024-03-25T12:22:02;6.13;;;1.50;;
14235;SDS011;7202;50.718;7.072;2024-03-25T12:24:49;4.68;;;1.65;;
14235;SDS011;7202;50.718;7.072;2024-03-25T12:27:36;4.32;;;1.75;;
14235;SDS011;7202;50.718;7.072;2024-03-25T12:30:23;2.55;;;1.60;;
14235;SDS011;7202;50.718;7.072;2024-03-25T12:33:08;4.22;;;1.98;;
14235;SDS011;7202;50.718;7.072;2024-03-25T12:35:53;4.00;;;1.35;;
14235;SDS011;7202;50.718;7.072;2024-03-25T12:38:39;2.88;;;1.40;;
14235;SDS011;7202;50.718;7.072;2024-03-25T12:41:24;5.85;;;1.92;;
14235;SDS011;7202;50.718;7.072;2024-03-25T12:44:12;3.22;;;1.50;;
14235;SDS011;7202;50.718;7.072;2024-03-25T12:46:57;3.78;;;1.40;;
14235;SDS011;7202;50.718;7.072;2024-03-25T12:49:43;4.32;;;1.77;;
14235;SDS011;7202;50.718;7.072;2024-03-25T12:52:28;6.07;;;1.48;;
14235;SDS011;7202;50.718;7.072;2024-03-25T12:55:13;4.05;;;1.73;;
14235;SDS011;7202;50.718;7.072;2024-03-25T12:57:59;3.72;;;2.08;;
14235;SDS011;7202;50.718;7.072;2024-03-25T13:00:45;3.80;;;1.70;;
14235;SDS011;7202;50.718;7.072;2024-03-25T13:03:31;4.18;;;1.42;;
14235;SDS011;7202;50.718;7.072;2024-03-25T13:06:16;3.60;;;1.70;;
14235;SDS011;7202;50.718;7.072;2024-03-25T13:09:01;8.98;;;2.13;;
14235;SDS011;7202;50.718;7.072;2024-03-25T13:11:46;2.85;;;1.55;;
14235;SDS011;7202;50.718;7.072;2024-03-25T13:14:32;3.17;;;1.80;;
14235;SDS011;7202;50.718;7.072;2024-03-25T13:17:18;3.88;;;1.60;;
14235;SDS011;7202;50.718;7.072;2024-03-25T13:20:05;8.95;;;1.75;;
14235;SDS011;7202;50.718;7.072;2024-03-25T13:22:52;3.25;;;1.80;;
14235;SDS011;7202;50.718;7.072;2024-03-25T13:25:39;3.75;;;1.63;;
14235;SDS011;7202;50.718;7.072;2024-03-25T13:28:24;5.60;;;1.70;;
14235;SDS011;7202;50.718;7.072;2024-03-25T13:31:10;6.78;;;1.58;;
14235;SDS011;7202;50.718;7.072;2024-03-25T13:33:57;5.45;;;1.98;;
14235;SDS011;7202;50.718;7.072;2024-03-25T13:36:42;2.65;;;1.70;;
14235;SDS011;7202;50.718;7.072;2024-03-25T13:39:27;4.20;;;1.50;;
14235;SDS011;7202;50.718;7.072;2024-03-25T13:42:12;2.13;;;1.40;;
14235;SDS011;7202;50.718;7.072;2024-03-25T13:44:58;3.33;;;1.85;;
14235;SDS011;7202;50.718;7.072;2024-03-25T13:47:43;5.30;;;1.80;;
14235;SDS011;7202;50.718;7.072;2024-03-25T13:50:30;2.95;;;1.48;;
14235;SDS011;7202;50.718;7.072;2024-03-25T13:53:15;3.95;;;1.55;;
14235;SDS011;7202;50.718;7.072;2024-03-25T13:56:00;2.88;;;1.55;;
14235;SDS011;7202;50.718;7.072;2024-03-25T13:58:46;4.47;;;1.52;;
14235;SDS011;7202;50.718;7.072;2024-03-25T14:01:31;3.45;;;1.58;;
14235;SDS011;7202;50.718;7.072;2024-03-25T14:04:16;5.35;;;2.25;;
14235;SDS011;7202;50.718;7.072;2024-03-25T14:07:04;3.22;;;1.40;;
14235;SDS011;7202;50.718;7.072;2024-03-25T14:09:49;6.00;;;1.90;;
14235;SDS011;7202;50.718;7.072;2024-03-25T14:12:34;3.88;;;1.40;;
14235;SDS011;7202;50.718;7.072;2024-03-25T14:15:20;3.85;;;1.52;;
14235;SDS011;7202;50.718;7.072;2024-03-25T14:18:05;2.22;;;1.67;;
14235;SDS011;7202;50.718;7.072;2024-03-25T14:20:51;3.88;;;1.88;;
14235;SDS011;7202;50.718;7.072;2024-03-25T14:23:38;5.47;;;1.70;;
14235;SDS011;7202;50.718;7.072;2024-03-25T14:26:23;4.75;;;2.08;;
14235;SDS011;7202;50.718;7.072;2024-03-25T14:29:08;2.15;;;1.58;;
14235;SDS011;7202;50.718;7.072;2024-03-25T14:31:53;2.47;;;1.35;;
14235;SDS011;7202;50.718;7.072;2024-03-25T14:34:38;3.17;;;1.77;;
14235;SDS011;7202;50.718;7.072;2024-03-25T14:37:24;3.92;;;1.60;;
14235;SDS011;7202;50.718;7.072;2024-03-25T14:40:11;3.50;;;1.65;;
14235;SDS011;7202;50.718;7.072;2024-03-25T14:42:57;3.67;;;1.77;;
14235;SDS011;7202;50.718;7.072;2024-03-25T14:45:45;5.53;;;1.58;;
14235;SDS011;7202;50.718;7.072;2024-03-25T14:48:31;4.15;;;1.60;;
14235;SDS011;7202;50.718;7.072;2024-03-25T14:51:17;4.18;;;1.80;;
14235;SDS011;7202;50.718;7.072;2024-03-25T14:54:02;4.63;;;1.50;;
14235;SDS011;7202;50.718;7.072;2024-03-25T14:56:49;3.38;;;1.83;;
14235;SDS011;7202;50.718;7.072;2024-03-25T14:59:35;5.05;;;2.10;;
14235;SDS011;7202;50.718;7.072;2024-03-25T15:02:20;6.35;;;1.50;;
14235;SDS011;7202;50.718;7.072;2024-03-25T15:05:05;3.67;;;1.42;;
14235;SDS011;7202;50.718;7.072;2024-03-25T15:07:51;4.68;;;1.50;;
14235;SDS011;7202;50.718;7.072;2024-03-25T15:10:36;2.55;;;1.35;;
14235;SDS011;7202;50.718;7.072;2024-03-25T15:13:23;3.67;;;1.80;;
14235;SDS011;7202;50.718;7.072;2024-03-25T15:16:09;4.28;;;1.67;;
14235;SDS011;7202;50.718;7.072;2024-03-25T15:18:54;2.85;;;1.63;;
14235;SDS011;7202;50.718;7.072;2024-03-25T15:21:39;5.55;;;1.50;;
14235;SDS011;7202;50.718;7.072;2024-03-25T15:24:24;3.95;;;1.90;;
14235;SDS011;7202;50.718;7.072;2024-03-25T15:27:10;4.28;;;1.75;;
14235;SDS011;7202;50.718;7.072;2024-03-25T15:29:56;4.22;;;1.92;;
14235;SDS011;7202;50.718;7.072;2024-03-25T15:32:41;4.93;;;1.70;;
14235;SDS011;7202;50.718;7.072;2024-03-25T15:35:27;3.90;;;1.50;;
14235;SDS011;7202;50.718;7.072;2024-03-25T15:38:12;4.95;;;1.70;;
14235;SDS011;7202;50.718;7.072;2024-03-25T15:40:57;4.32;;;1.85;;
14235;SDS011;7202;50.718;7.072;2024-03-25T15:43:42;2.00;;;1.48;;
14235;SDS011;7202;50.718;7.072;2024-03-25T15:46:29;4.10;;;1.52;;
14235;SDS011;7202;50.718;7.072;2024-03-25T15:49:15;2.72;;;1.58;;
14235;SDS011;7202;50.718;7.072;2024-03-25T15:52:00;3.83;;;1.90;;
14235;SDS011;7202;50.718;7.072;2024-03-25T15:54:45;3.55;;;1.30;;
14235;SDS011;7202;50.718;7.072;2024-03-25T15:57:30;3.97;;;1.58;;
14235;SDS011;7202;50.718;7.072;2024-03-25T16:00:15;2.00;;;1.23;;
14235;SDS011;7202;50.718;7.072;2024-03-25T16:03:02;3.08;;;1.40;;
14235;SDS011;7202;50.718;7.072;2024-03-25T16:05:48;3.78;;;1.13;;
14235;SDS011;7202;50.718;7.072;2024-03-25T16:08:33;6.07;;;1.58;;
14235;SDS011;7202;50.718;7.072;2024-03-25T16:11:18;3.70;;;1.33;;
14235;SDS011;7202;50.718;7.072;2024-03-25T16:14:04;4.10;;;1.40;;
14235;SDS011;7202;50.718;7.072;2024-03-25T16:16:49;3.42;;;1.52;;
14235;SDS011;7202;50.718;7.072;2024-03-25T16:19:35;2.80;;;1.40;;
14235;SDS011;7202;50.718;7.072;2024-03-25T16:22:22;2.63;;;1.40;;
14235;SDS011;7202;50.718;7.072;2024-03-25T16:25:08;2.40;;;1.27;;
14235;SDS011;7202;50.718;7.072;2024-03-25T16:27:55;2.85;;;1.48;;
14235;SDS011;7202;50.718;7.072;2024-03-25T16:30:40;2.13;;;1.10;;
14235;SDS011;7202;50.718;7.072;2024-03-25T16:33:25;2.38;;;1.40;;
14235;SDS011;7202;50.718;7.072;2024-03-25T16:36:12;3.85;;;1.40;;
14235;SDS011;7202;50.718;7.072;2024-03-25T16:38:57;4.28;;;1.52;;
14235;SDS011;7202;50.718;7.072;2024-03-25T16:41:42;5.10;;;1.65;;
14235;SDS011;7202;50.718;7.072;2024-03-25T16:44:28;1.85;;;1.10;;
14235;SDS011;7202;50.718;7.072;2024-03-25T16:47:13;3.45;;;1.30;;
14235;SDS011;7202;50.718;7.072;2024-03-25T16:49:58;2.75;;;1.42;;
14235;SDS011;7202;50.718;7.072;2024-03-25T16:52:45;2.55;;;1.25;;